Airfield :
LOGIN :

Register | Disclaimer

   EN    FR    IT 

 










Legend :    VFR   Marginal VFR   IFR   Intensive IFR   Very Intensive IFR
Visi :
Ceiling :
>= 8 km
>= 3000ft
5 to 8 km
1000 to 3000 ft
1500m to 5 km
500 to 1000 ft
800 to 1500m
200 to 500 ft
< 800m
< 200 ft
Symbols :   Thunderstorms  Fog  Heavy snow  Heavy precipitations  Wind > 20 kt
SIGMETs :     Misc.  Thunderstorms  Icing  Turbulence  Mountain Waves  Volcanic Ashes






- Airport Elevation : 215 ft
- IATA code : ABZ


EGPD - Aberdeen / Dyce

CURRENT METAR :
  • 291320Z AUTO 18007KT 9999 -RA SCT045 04/00 Q0993 TEMPO RA

EXPIRED METARs :
  • 291250Z AUTO 18008KT 9999 NCD 04/M00 Q0993 NOSIG
  • 291220Z AUTO 21007KT 180V240 9999 NCD 05/M01 Q0994 NOSIG
  • 291150Z 24009KT CAVOK 05/M01 Q0994 NOSIG
  • 291120Z 25009KT CAVOK 05/M01 Q0994
  • 291050Z AUTO 24010KT 9999 NCD 05/M01 Q0994 NOSIG

TAF TAF EGPD
Valid from the 29 at 12:00 until the 30 at 12:00 UTC


291058Z 2912/3012 24009KT 9999 SCT020
PROB40
TEMPO 2912/2924 24015G25KT
TEMPO 2914/2919 6000 RA BKN010
PROB40
TEMPO 2915/2919 4000 RADZ
PROB30
TEMPO 2915/2919 BKN004
PROB40
TEMPO 3000/3004 7000 RA BKN014
TEMPO 3007/3012 21018G28KT
PROB40
TEMPO 3009/3012 6000 RA BKN012



MET'MAP, your aeronautical weather chart ! - Copyright ORBIFLY December 2007 - Disclaimer

ORBIFLY MET'MAP TEAM :

Programming & Development : Alexandra Zaïnal
Concept & original design : Baudouin d'Aumeries
Assistance for programming : Marc-Olivier Méhu
Technical & hardware support : Manuel Goepfert

Contact : metmap@orbifly.com




SOURCES & CREDITS :

   NOAA